sensor_id;sensor_type;location;lat;lon;timestamp;pressure;altitude;pressure_sealevel;temperature;humidity
76358;BME280;65185;21.060;105.826;2023-09-19T00:00:46;101082.25;;;27.61;100.00
76358;BME280;65185;21.060;105.826;2023-09-19T00:03:15;101087.47;;;27.62;100.00
76358;BME280;65185;21.060;105.826;2023-09-19T00:05:50;101084.59;;;27.65;100.00
76358;BME280;65185;21.060;105.826;2023-09-19T00:08:17;101085.31;;;27.67;100.00
76358;BME280;65185;21.060;105.826;2023-09-19T00:10:48;101094.69;;;27.73;100.00
76358;BME280;65185;21.060;105.826;2023-09-19T00:13:15;101086.38;;;27.77;100.00
76358;BME280;65185;21.060;105.826;2023-09-19T00:15:46;101088.72;;;27.82;100.00
76358;BME280;65185;21.060;105.826;2023-09-19T00:18:18;101094.91;;;27.82;100.00
76358;BME280;65185;21.060;105.826;2023-09-19T00:20:47;101081.38;;;27.85;100.00
76358;BME280;65185;21.060;105.826;2023-09-19T00:23:15;101088.31;;;27.88;100.00
76358;BME280;65185;21.060;105.826;2023-09-19T00:25:42;101094.06;;;27.94;100.00
76358;BME280;65185;21.060;105.826;2023-09-19T00:28:09;101090.13;;;28.00;100.00
76358;BME280;65185;21.060;105.826;2023-09-19T00:30:36;101093.53;;;28.02;100.00
76358;BME280;65185;21.060;105.826;2023-09-19T00:33:05;101090.84;;;28.14;100.00
76358;BME280;65185;21.060;105.826;2023-09-19T00:35:34;101092.63;;;28.26;100.00
76358;BME280;65185;21.060;105.826;2023-09-19T00:38:01;101094.25;;;28.16;100.00
76358;BME280;65185;21.060;105.826;2023-09-19T00:40:28;101099.81;;;28.13;100.00
76358;BME280;65185;21.060;105.826;2023-09-19T00:42:59;101094.38;;;28.15;100.00
76358;BME280;65185;21.060;105.826;2023-09-19T00:45:29;101104.13;;;28.27;100.00
76358;BME280;65185;21.060;105.826;2023-09-19T00:47:57;101103.47;;;28.36;100.00
76358;BME280;65185;21.060;105.826;2023-09-19T00:50:29;101106.47;;;28.31;100.00
76358;BME280;65185;21.060;105.826;2023-09-19T00:52:58;101104.44;;;28.35;100.00
76358;BME280;65185;21.060;105.826;2023-09-19T00:55:26;101108.09;;;28.34;100.00
76358;BME280;65185;21.060;105.826;2023-09-19T00:57:59;101105.94;;;28.39;100.00
76358;BME280;65185;21.060;105.826;2023-09-19T01:00:26;101106.31;;;28.45;100.00
76358;BME280;65185;21.060;105.826;2023-09-19T01:02:54;101117.84;;;28.59;100.00
76358;BME280;65185;21.060;105.826;2023-09-19T01:05:22;101114.28;;;28.71;100.00
76358;BME280;65185;21.060;105.826;2023-09-19T01:07:50;101129.94;;;28.75;100.00
76358;BME280;65185;21.060;105.826;2023-09-19T01:10:20;101126.19;;;28.78;100.00
76358;BME280;65185;21.060;105.826;2023-09-19T01:23:48;101148.66;;;28.86;100.00
76358;BME280;65185;21.060;105.826;2023-09-19T01:32:09;101139.28;;;29.04;100.00
76358;BME280;65185;21.060;105.826;2023-09-19T01:34:46;101133.50;;;29.10;100.00
76358;BME280;65185;21.060;105.826;2023-09-19T01:37:19;101130.56;;;29.26;100.00
76358;BME280;65185;21.060;105.826;2023-09-19T01:51:08;101137.56;;;29.16;100.00
76358;BME280;65185;21.060;105.826;2023-09-19T01:53:41;101135.00;;;29.14;100.00
76358;BME280;65185;21.060;105.826;2023-09-19T01:56:16;101139.16;;;29.06;100.00
76358;BME280;65185;21.060;105.826;2023-09-19T01:58:53;101134.28;;;29.12;100.00
76358;BME280;65185;21.060;105.826;2023-09-19T02:01:22;101136.28;;;29.09;100.00
76358;BME280;65185;21.060;105.826;2023-09-19T02:03:51;101136.00;;;29.01;100.00
76358;BME280;65185;21.060;105.826;2023-09-19T02:06:18;101132.75;;;29.08;100.00
76358;BME280;65185;21.060;105.826;2023-09-19T02:08:46;101130.28;;;29.18;100.00
76358;BME280;65185;21.060;105.826;2023-09-19T02:11:13;101131.16;;;29.18;100.00
76358;BME280;65185;21.060;105.826;2023-09-19T02:13:40;101120.59;;;29.28;100.00
76358;BME280;65185;21.060;105.826;2023-09-19T02:16:08;101120.88;;;29.36;100.00
76358;BME280;65185;21.060;105.826;2023-09-19T02:18:37;101119.69;;;29.40;100.00
76358;BME280;65185;21.060;105.826;2023-09-19T02:21:05;101117.00;;;29.40;100.00
76358;BME280;65185;21.060;105.826;2023-09-19T02:23:38;101113.59;;;29.38;98.60
76358;BME280;65185;21.060;105.826;2023-09-19T02:26:05;101113.72;;;29.36;98.08
76358;BME280;65185;21.060;105.826;2023-09-19T02:28:32;101119.44;;;29.43;97.51
76358;BME280;65185;21.060;105.826;2023-09-19T02:31:00;101114.09;;;29.43;95.31
76358;BME280;65185;21.060;105.826;2023-09-19T02:33:27;101114.97;;;29.43;95.31
76358;BME280;65185;21.060;105.826;2023-09-19T02:35:59;101110.38;;;29.57;96.43
76358;BME280;65185;21.060;105.826;2023-09-19T02:38:26;101113.41;;;29.63;96.51
76358;BME280;65185;21.060;105.826;2023-09-19T02:40:53;101105.03;;;29.57;94.88
76358;BME280;65185;21.060;105.826;2023-09-19T02:43:22;101100.06;;;29.63;93.73
76358;BME280;65185;21.060;105.826;2023-09-19T02:45:49;101098.28;;;29.75;94.33
76358;BME280;65185;21.060;105.826;2023-09-19T02:48:16;101108.84;;;29.87;95.64
76358;BME280;65185;21.060;105.826;2023-09-19T02:50:45;101110.31;;;29.91;95.06
76358;BME280;65185;21.060;105.826;2023-09-19T02:53:12;101108.84;;;29.76;96.55
76358;BME280;65185;21.060;105.826;2023-09-19T02:55:39;101116.38;;;29.71;97.22
76358;BME280;65185;21.060;105.826;2023-09-19T02:58:07;101120.75;;;29.72;97.07
76358;BME280;65185;21.060;105.826;2023-09-19T03:00:38;101124.63;;;29.68;95.95
76358;BME280;65185;21.060;105.826;2023-09-19T03:03:05;101121.13;;;29.79;96.21
76358;BME280;65185;21.060;105.826;2023-09-19T03:05:32;101129.38;;;29.87;96.89
76358;BME280;65185;21.060;105.826;2023-09-19T03:08:00;101119.66;;;29.86;97.82
76358;BME280;65185;21.060;105.826;2023-09-19T03:10:27;101117.88;;;29.97;96.61
76358;BME280;65185;21.060;105.826;2023-09-19T03:12:56;101126.63;;;29.99;95.79
76358;BME280;65185;21.060;105.826;2023-09-19T03:15:25;101119.19;;;30.03;94.99
76358;BME280;65185;21.060;105.826;2023-09-19T03:17:53;101121.00;;;30.02;96.04
76358;BME280;65185;21.060;105.826;2023-09-19T03:20:20;101128.78;;;30.05;96.18
76358;BME280;65185;21.060;105.826;2023-09-19T03:22:48;101123.34;;;29.96;93.43
76358;BME280;65185;21.060;105.826;2023-09-19T03:25:15;101120.88;;;29.82;94.66
76358;BME280;65185;21.060;105.826;2023-09-19T03:27:43;101120.28;;;29.78;95.43
76358;BME280;65185;21.060;105.826;2023-09-19T03:30:16;101119.31;;;29.79;93.97
76358;BME280;65185;21.060;105.826;2023-09-19T03:32:47;101116.13;;;29.74;94.07
76358;BME280;65185;21.060;105.826;2023-09-19T03:35:16;101121.59;;;29.73;95.10
76358;BME280;65185;21.060;105.826;2023-09-19T03:37:43;101111.25;;;29.68;93.66
76358;BME280;65185;21.060;105.826;2023-09-19T03:40:11;101113.84;;;29.81;94.24
76358;BME280;65185;21.060;105.826;2023-09-19T03:42:41;101113.00;;;30.24;93.37
76358;BME280;65185;21.060;105.826;2023-09-19T03:45:09;101106.25;;;31.37;91.05
76358;BME280;65185;21.060;105.826;2023-09-19T03:47:39;101098.28;;;32.38;85.31
76358;BME280;65185;21.060;105.826;2023-09-19T03:50:07;101092.88;;;33.35;77.60
76358;BME280;65185;21.060;105.826;2023-09-19T03:52:37;101096.53;;;34.08;72.25
76358;BME280;65185;21.060;105.826;2023-09-19T03:55:04;101090.03;;;34.56;71.33
76358;BME280;65185;21.060;105.826;2023-09-19T03:57:32;101093.31;;;33.95;73.79
76358;BME280;65185;21.060;105.826;2023-09-19T03:59:59;101088.34;;;33.45;76.88
76358;BME280;65185;21.060;105.826;2023-09-19T04:02:26;101084.69;;;32.79;79.16
76358;BME280;65185;21.060;105.826;2023-09-19T04:04:59;101080.91;;;32.32;80.84
76358;BME280;65185;21.060;105.826;2023-09-19T04:07:26;101086.00;;;31.95;81.36
76358;BME280;65185;21.060;105.826;2023-09-19T04:09:54;101079.31;;;31.60;83.13
76358;BME280;65185;21.060;105.826;2023-09-19T04:12:21;101079.00;;;31.53;84.47
76358;BME280;65185;21.060;105.826;2023-09-19T04:14:48;101078.91;;;31.02;86.39
76358;BME280;65185;21.060;105.826;2023-09-19T04:17:16;101074.00;;;30.76;88.50
76358;BME280;65185;21.060;105.826;2023-09-19T04:19:44;101059.72;;;30.55;84.97
76358;BME280;65185;21.060;105.826;2023-09-19T04:22:12;101061.78;;;30.51;87.99
76358;BME280;65185;21.060;105.826;2023-09-19T04:24:39;101056.34;;;30.53;91.22
76358;BME280;65185;21.060;105.826;2023-09-19T04:27:06;101049.75;;;30.45;88.45
76358;BME280;65185;21.060;105.826;2023-09-19T04:29:33;101045.47;;;30.65;88.79
76358;BME280;65185;21.060;105.826;2023-09-19T04:32:01;101048.41;;;30.94;88.64
76358;BME280;65185;21.060;105.826;2023-09-19T04:34:31;101040.31;;;31.05;86.65
76358;BME280;65185;21.060;105.826;2023-09-19T04:37:00;101033.06;;;31.16;86.15
76358;BME280;65185;21.060;105.826;2023-09-19T04:39:28;101027.59;;;31.38;86.11
76358;BME280;65185;21.060;105.826;2023-09-19T04:41:55;101034.25;;;31.44;86.54
76358;BME280;65185;21.060;105.826;2023-09-19T04:44:23;101023.84;;;31.51;86.75
76358;BME280;65185;21.060;105.826;2023-09-19T04:46:50;101023.75;;;31.62;85.22
76358;BME280;65185;21.060;105.826;2023-09-19T04:49:17;101014.44;;;31.56;85.21
76358;BME280;65185;21.060;105.826;2023-09-19T04:51:44;101014.06;;;31.40;86.47
76358;BME280;65185;21.060;105.826;2023-09-19T04:54:13;101018.91;;;31.25;85.12
76358;BME280;65185;21.060;105.826;2023-09-19T04:56:41;101002.31;;;31.31;81.85
76358;BME280;65185;21.060;105.826;2023-09-19T04:59:09;100999.50;;;31.33;82.86
76358;BME280;65185;21.060;105.826;2023-09-19T05:01:36;100996.66;;;31.34;84.83
76358;BME280;65185;21.060;105.826;2023-09-19T05:04:04;100986.97;;;31.33;85.29
76358;BME280;65185;21.060;105.826;2023-09-19T05:06:31;100979.53;;;31.37;83.81
76358;BME280;65185;21.060;105.826;2023-09-19T05:09:01;100988.00;;;31.42;84.53
76358;BME280;65185;21.060;105.826;2023-09-19T05:11:31;100968.41;;;31.21;85.13
76358;BME280;65185;21.060;105.826;2023-09-19T05:13:58;100965.94;;;31.08;85.05
76358;BME280;65185;21.060;105.826;2023-09-19T05:16:30;100967.66;;;30.89;86.02
76358;BME280;65185;21.060;105.826;2023-09-19T05:19:00;100968.66;;;30.88;83.81
76358;BME280;65185;21.060;105.826;2023-09-19T05:21:27;100956.22;;;30.87;83.43
76358;BME280;65185;21.060;105.826;2023-09-19T05:23:57;100955.78;;;30.82;84.99
76358;BME280;65185;21.060;105.826;2023-09-19T05:26:24;100948.25;;;30.76;86.08
76358;BME280;65185;21.060;105.826;2023-09-19T05:28:51;100942.31;;;30.72;87.72
76358;BME280;65185;21.060;105.826;2023-09-19T05:31:19;100942.50;;;30.60;88.31
76358;BME280;65185;21.060;105.826;2023-09-19T05:33:46;100929.13;;;30.60;88.52
76358;BME280;65185;21.060;105.826;2023-09-19T05:36:13;100930.44;;;30.65;88.56
76358;BME280;65185;21.060;105.826;2023-09-19T05:38:43;100922.06;;;30.59;88.86
76358;BME280;65185;21.060;105.826;2023-09-19T05:41:10;100920.75;;;30.53;88.90
76358;BME280;65185;21.060;105.826;2023-09-19T05:43:40;100923.69;;;30.50;90.31
76358;BME280;65185;21.060;105.826;2023-09-19T05:46:07;100911.69;;;30.44;90.32
76358;BME280;65185;21.060;105.826;2023-09-19T05:48:35;100912.84;;;30.52;90.11
76358;BME280;65185;21.060;105.826;2023-09-19T05:51:02;100905.34;;;30.66;91.08
76358;BME280;65185;21.060;105.826;2023-09-19T05:53:29;100902.00;;;30.85;91.15
76358;BME280;65185;21.060;105.826;2023-09-19T05:55:56;100903.16;;;30.92;89.72
76358;BME280;65185;21.060;105.826;2023-09-19T05:58:23;100901.63;;;30.89;89.37
76358;BME280;65185;21.060;105.826;2023-09-19T06:00:50;100893.16;;;30.94;88.62
76358;BME280;65185;21.060;105.826;2023-09-19T06:03:18;100891.72;;;30.90;87.94
76358;BME280;65185;21.060;105.826;2023-09-19T06:05:46;100897.94;;;30.90;87.22
76358;BME280;65185;21.060;105.826;2023-09-19T06:08:15;100887.16;;;30.81;88.10
76358;BME280;65185;21.060;105.826;2023-09-19T06:10:41;100879.09;;;30.71;88.61
76358;BME280;65185;21.060;105.826;2023-09-19T06:13:08;100887.50;;;30.67;88.41
76358;BME280;65185;21.060;105.826;2023-09-19T06:15:37;100878.38;;;30.69;88.75
76358;BME280;65185;21.060;105.826;2023-09-19T06:18:04;100873.13;;;30.68;89.62
76358;BME280;65185;21.060;105.826;2023-09-19T06:20:31;100870.44;;;30.68;89.90
76358;BME280;65185;21.060;105.826;2023-09-19T06:22:59;100872.16;;;30.69;90.04
76358;BME280;65185;21.060;105.826;2023-09-19T06:25:28;100864.72;;;30.72;89.98
76358;BME280;65185;21.060;105.826;2023-09-19T06:27:55;100862.41;;;30.68;89.63
76358;BME280;65185;21.060;105.826;2023-09-19T06:30:23;100854.66;;;30.65;89.15
76358;BME280;65185;21.060;105.826;2023-09-19T06:32:56;100852.28;;;30.62;89.30
76358;BME280;65185;21.060;105.826;2023-09-19T06:35:23;100848.59;;;30.63;88.62
76358;BME280;65185;21.060;105.826;2023-09-19T06:37:52;100842.09;;;30.56;88.14
76358;BME280;65185;21.060;105.826;2023-09-19T06:40:19;100833.69;;;30.60;87.81
76358;BME280;65185;21.060;105.826;2023-09-19T06:42:49;100838.91;;;30.62;88.85
76358;BME280;65185;21.060;105.826;2023-09-19T06:45:17;100827.91;;;30.65;86.71
76358;BME280;65185;21.060;105.826;2023-09-19T06:47:51;100815.13;;;30.68;86.21
76358;BME280;65185;21.060;105.826;2023-09-19T06:50:21;100810.19;;;30.64;88.20
76358;BME280;65185;21.060;105.826;2023-09-19T06:52:50;100813.25;;;30.59;89.33
76358;BME280;65185;21.060;105.826;2023-09-19T06:55:17;100804.25;;;30.60;89.43
76358;BME280;65185;21.060;105.826;2023-09-19T06:57:46;100796.91;;;30.53;89.81
76358;BME280;65185;21.060;105.826;2023-09-19T07:00:13;100780.38;;;30.48;90.64
76358;BME280;65185;21.060;105.826;2023-09-19T07:03:02;100777.84;;;30.46;91.87
76358;BME280;65185;21.060;105.826;2023-09-19T07:05:38;100781.03;;;30.40;92.22
76358;BME280;65185;21.060;105.826;2023-09-19T07:08:06;100771.19;;;30.40;91.71
76358;BME280;65185;21.060;105.826;2023-09-19T07:10:33;100765.91;;;30.50;91.43
76358;BME280;65185;21.060;105.826;2023-09-19T07:13:04;100764.53;;;30.56;90.95
76358;BME280;65185;21.060;105.826;2023-09-19T07:15:36;100769.00;;;30.55;89.71
76358;BME280;65185;21.060;105.826;2023-09-19T07:18:06;100763.28;;;30.60;89.85
76358;BME280;65185;21.060;105.826;2023-09-19T07:20:32;100760.28;;;30.53;88.89
76358;BME280;65185;21.060;105.826;2023-09-19T07:23:00;100759.56;;;30.51;88.30
76358;BME280;65185;21.060;105.826;2023-09-19T07:25:30;100764.25;;;30.59;88.92
76358;BME280;65185;21.060;105.826;2023-09-19T07:27:59;100755.25;;;30.60;88.73
76358;BME280;65185;21.060;105.826;2023-09-19T07:30:27;100750.16;;;30.57;89.11
76358;BME280;65185;21.060;105.826;2023-09-19T07:32:53;100748.66;;;30.64;88.70
76358;BME280;65185;21.060;105.826;2023-09-19T07:35:20;100745.28;;;30.62;87.85
76358;BME280;65185;21.060;105.826;2023-09-19T07:37:47;100743.75;;;30.69;87.44
76358;BME280;65185;21.060;105.826;2023-09-19T07:40:22;100741.78;;;30.71;88.11
76358;BME280;65185;21.060;105.826;2023-09-19T07:42:49;100737.97;;;30.73;87.85
76358;BME280;65185;21.060;105.826;2023-09-19T07:45:16;100737.72;;;30.76;86.88
76358;BME280;65185;21.060;105.826;2023-09-19T07:47:46;100727.41;;;30.72;86.47
76358;BME280;65185;21.060;105.826;2023-09-19T07:50:14;100733.31;;;30.66;86.44
76358;BME280;65185;21.060;105.826;2023-09-19T07:52:42;100724.88;;;30.70;85.83
76358;BME280;65185;21.060;105.826;2023-09-19T07:55:11;100724.03;;;30.70;86.18
76358;BME280;65185;21.060;105.826;2023-09-19T07:57:42;100717.97;;;30.68;86.59
76358;BME280;65185;21.060;105.826;2023-09-19T08:00:10;100714.13;;;30.61;86.51
76358;BME280;65185;21.060;105.826;2023-09-19T08:02:37;100713.03;;;30.63;86.10
76358;BME280;65185;21.060;105.826;2023-09-19T08:05:04;100709.78;;;30.60;87.20
76358;BME280;65185;21.060;105.826;2023-09-19T08:07:51;100713.69;;;30.56;88.55
76358;BME280;65185;21.060;105.826;2023-09-19T08:10:18;100711.03;;;30.56;87.73
76358;BME280;65185;21.060;105.826;2023-09-19T08:12:46;100713.69;;;30.56;87.73
76358;BME280;65185;21.060;105.826;2023-09-19T08:15:21;100705.78;;;30.44;87.57
76358;BME280;65185;21.060;105.826;2023-09-19T08:17:48;100702.53;;;30.41;87.42
76358;BME280;65185;21.060;105.826;2023-09-19T08:20:16;100701.81;;;30.39;86.84
76358;BME280;65185;21.060;105.826;2023-09-19T08:22:50;100698.59;;;30.45;85.36
76358;BME280;65185;21.060;105.826;2023-09-19T08:25:23;100691.53;;;30.44;85.43
76358;BME280;65185;21.060;105.826;2023-09-19T08:27:55;100697.03;;;30.42;86.38
76358;BME280;65185;21.060;105.826;2023-09-19T08:30:27;100692.94;;;30.38;87.36
76358;BME280;65185;21.060;105.826;2023-09-19T08:33:02;100693.06;;;30.37;89.48
76358;BME280;65185;21.060;105.826;2023-09-19T08:35:30;100698.84;;;30.42;89.15
76358;BME280;65185;21.060;105.826;2023-09-19T08:37:56;100709.03;;;30.48;89.95
76358;BME280;65185;21.060;105.826;2023-09-19T08:40:23;100712.72;;;30.57;88.37
76358;BME280;65185;21.060;105.826;2023-09-19T08:42:52;100708.66;;;30.62;87.78
76358;BME280;65185;21.060;105.826;2023-09-19T08:45:23;100707.97;;;30.60;87.88
76358;BME280;65185;21.060;105.826;2023-09-19T08:50:28;100703.41;;;30.51;88.19
76358;BME280;65185;21.060;105.826;2023-09-19T08:52:56;100707.19;;;30.49;88.79
76358;BME280;65185;21.060;105.826;2023-09-19T08:55:31;100700.03;;;30.49;87.01
76358;BME280;65185;21.060;105.826;2023-09-19T08:58:04;100699.31;;;30.47;86.52
76358;BME280;65185;21.060;105.826;2023-09-19T09:00:33;100701.28;;;30.45;86.42
76358;BME280;65185;21.060;105.826;2023-09-19T09:03:02;100705.38;;;30.49;87.31
76358;BME280;65185;21.060;105.826;2023-09-19T09:05:30;100701.28;;;30.45;87.35
76358;BME280;65185;21.060;105.826;2023-09-19T09:07:58;100704.81;;;30.55;89.03
76358;BME280;65185;21.060;105.826;2023-09-19T09:10:25;100696.28;;;30.61;87.63
76358;BME280;65185;21.060;105.826;2023-09-19T09:13:01;100695.56;;;30.59;87.30
76358;BME280;65185;21.060;105.826;2023-09-19T09:15:31;100697.78;;;30.54;86.60
76358;BME280;65185;21.060;105.826;2023-09-19T09:18:03;100692.84;;;30.50;85.96
76358;BME280;65185;21.060;105.826;2023-09-19T09:20:30;100701.03;;;30.58;86.34
76358;BME280;65185;21.060;105.826;2023-09-19T09:22:58;100695.59;;;30.69;86.64
76358;BME280;65185;21.060;105.826;2023-09-19T09:25:50;100699.94;;;30.70;87.45
76358;BME280;65185;21.060;105.826;2023-09-19T09:28:30;100691.34;;;30.66;87.65
76358;BME280;65185;21.060;105.826;2023-09-19T09:30:58;100694.16;;;30.65;90.40
76358;BME280;65185;21.060;105.826;2023-09-19T09:33:25;100698.22;;;30.59;92.85
76358;BME280;65185;21.060;105.826;2023-09-19T09:38:48;100706.06;;;30.51;97.73
76358;BME280;65185;21.060;105.826;2023-09-19T09:41:16;100700.03;;;30.49;98.58
76358;BME280;65185;21.060;105.826;2023-09-19T09:43:53;100699.72;;;30.42;99.07
76358;BME280;65185;21.060;105.826;2023-09-19T09:46:21;100707.53;;;30.34;98.78
76358;BME280;65185;21.060;105.826;2023-09-19T09:51:44;100714.28;;;30.29;100.00
76358;BME280;65185;21.060;105.826;2023-09-19T09:54:35;100716.59;;;30.22;100.00
76358;BME280;65185;21.060;105.826;2023-09-19T09:57:11;100709.97;;;30.17;100.00
76358;BME280;65185;21.060;105.826;2023-09-19T09:59:51;100719.94;;;30.15;100.00
76358;BME280;65185;21.060;105.826;2023-09-19T10:02:50;100726.84;;;30.17;100.00
76358;BME280;65185;21.060;105.826;2023-09-19T10:05:19;100726.72;;;30.19;100.00
76358;BME280;65185;21.060;105.826;2023-09-19T10:07:50;100722.75;;;30.13;100.00
76358;BME280;65185;21.060;105.826;2023-09-19T10:10:35;100726.66;;;30.09;100.00
76358;BME280;65185;21.060;105.826;2023-09-19T10:13:21;100741.72;;;30.10;100.00
76358;BME280;65185;21.060;105.826;2023-09-19T10:15:51;100745.38;;;30.09;100.00
76358;BME280;65185;21.060;105.826;2023-09-19T10:18:25;100733.94;;;30.07;100.00
76358;BME280;65185;21.060;105.826;2023-09-19T10:20:54;100737.63;;;30.06;100.00
76358;BME280;65185;21.060;105.826;2023-09-19T10:23:22;100745.44;;;29.98;100.00
76358;BME280;65185;21.060;105.826;2023-09-19T10:25:51;100755.53;;;29.95;100.00
76358;BME280;65185;21.060;105.826;2023-09-19T10:28:19;100757.94;;;29.98;100.00
76358;BME280;65185;21.060;105.826;2023-09-19T10:30:51;100763.16;;;29.99;100.00
76358;BME280;65185;21.060;105.826;2023-09-19T10:33:20;100760.59;;;29.98;100.00
76358;BME280;65185;21.060;105.826;2023-09-19T10:35:50;100753.72;;;29.95;100.00
76358;BME280;65185;21.060;105.826;2023-09-19T10:38:27;100767.53;;;30.00;100.00
76358;BME280;65185;21.060;105.826;2023-09-19T10:40:56;100770.78;;;30.24;99.23
76358;BME280;65185;21.060;105.826;2023-09-19T10:43:30;100757.66;;;30.32;98.07
76358;BME280;65185;21.060;105.826;2023-09-19T10:46:07;100772.56;;;30.35;97.83
76358;BME280;65185;21.060;105.826;2023-09-19T10:48:37;100780.31;;;30.17;97.99
76358;BME280;65185;21.060;105.826;2023-09-19T10:51:25;100774.84;;;30.19;98.38
76358;BME280;65185;21.060;105.826;2023-09-19T10:53:55;100782.41;;;30.14;98.27
76358;BME280;65185;21.060;105.826;2023-09-19T10:56:42;100783.72;;;30.19;97.98
76358;BME280;65185;21.060;105.826;2023-09-19T10:59:15;100780.81;;;30.11;98.17
76358;BME280;65185;21.060;105.826;2023-09-19T11:01:46;100782.53;;;30.12;99.08
76358;BME280;65185;21.060;105.826;2023-09-19T11:04:23;100779.66;;;30.04;98.92
76358;BME280;65185;21.060;105.826;2023-09-19T11:07:07;100781.16;;;30.18;98.95
76358;BME280;65185;21.060;105.826;2023-09-19T11:09:54;100776.78;;;30.17;98.40
76358;BME280;65185;21.060;105.826;2023-09-19T11:15:08;100779.97;;;30.11;100.00
76358;BME280;65185;21.060;105.826;2023-09-19T11:17:43;100777.44;;;30.09;99.78
76358;BME280;65185;21.060;105.826;2023-09-19T11:25:46;100787.94;;;30.01;100.00
76358;BME280;65185;21.060;105.826;2023-09-19T11:28:28;100793.38;;;30.00;100.00
76358;BME280;65185;21.060;105.826;2023-09-19T11:30:57;100795.63;;;29.95;100.00
76358;BME280;65185;21.060;105.826;2023-09-19T11:33:29;100790.53;;;29.92;99.48
76358;BME280;65185;21.060;105.826;2023-09-19T11:36:14;100790.63;;;30.01;99.46
76358;BME280;65185;21.060;105.826;2023-09-19T11:46:31;100799.69;;;29.78;100.00
76358;BME280;65185;21.060;105.826;2023-09-19T11:49:05;100805.88;;;29.79;100.00
76358;BME280;65185;21.060;105.826;2023-09-19T11:51:43;100811.69;;;29.84;100.00
76358;BME280;65185;21.060;105.826;2023-09-19T11:54:12;100816.91;;;29.85;100.00
76358;BME280;65185;21.060;105.826;2023-09-19T11:56:45;100820.09;;;29.79;100.00
76358;BME280;65185;21.060;105.826;2023-09-19T11:59:23;100820.94;;;29.80;100.00
76358;BME280;65185;21.060;105.826;2023-09-19T12:01:52;100821.19;;;29.77;100.00
76358;BME280;65185;21.060;105.826;2023-09-19T12:04:44;100833.69;;;29.76;100.00
76358;BME280;65185;21.060;105.826;2023-09-19T12:07:15;100840.50;;;29.80;100.00
76358;BME280;65185;21.060;105.826;2023-09-19T12:09:50;100846.56;;;29.82;100.00
76358;BME280;65185;21.060;105.826;2023-09-19T12:12:25;100849.59;;;29.67;100.00
76358;BME280;65185;21.060;105.826;2023-09-19T12:14:56;100858.72;;;29.64;100.00
76358;BME280;65185;21.060;105.826;2023-09-19T12:17:36;100858.72;;;29.64;100.00
76358;BME280;65185;21.060;105.826;2023-09-19T12:20:03;100864.28;;;29.61;100.00
76358;BME280;65185;21.060;105.826;2023-09-19T12:22:44;100866.38;;;29.58;100.00
76358;BME280;65185;21.060;105.826;2023-09-19T12:25:14;100869.56;;;29.52;100.00
76358;BME280;65185;21.060;105.826;2023-09-19T12:27:49;100875.22;;;29.58;100.00
76358;BME280;65185;21.060;105.826;2023-09-19T12:30:27;100875.63;;;29.54;100.00
76358;BME280;65185;21.060;105.826;2023-09-19T12:32:59;100878.66;;;29.49;100.00
76358;BME280;65185;21.060;105.826;2023-09-19T12:35:31;100880.84;;;29.55;100.00
76358;BME280;65185;21.060;105.826;2023-09-19T12:38:02;100884.44;;;29.65;100.00
76358;BME280;65185;21.060;105.826;2023-09-19T12:40:30;100881.78;;;29.54;100.00
76358;BME280;65185;21.060;105.826;2023-09-19T12:43:00;100901.81;;;29.48;100.00
76358;BME280;65185;21.060;105.826;2023-09-19T12:45:30;100904.88;;;29.44;100.00
76358;BME280;65185;21.060;105.826;2023-09-19T12:48:19;100905.09;;;29.41;100.00
76358;BME280;65185;21.060;105.826;2023-09-19T12:51:08;100910.09;;;29.34;100.00
76358;BME280;65185;21.060;105.826;2023-09-19T12:53:40;100913.03;;;29.31;100.00
76358;BME280;65185;21.060;105.826;2023-09-19T12:56:09;100928.06;;;29.32;100.00
76358;BME280;65185;21.060;105.826;2023-09-19T12:59:09;100931.72;;;29.31;100.00
76358;BME280;65185;21.060;105.826;2023-09-19T13:01:37;100936.94;;;29.33;100.00
76358;BME280;65185;21.060;105.826;2023-09-19T13:04:20;100944.19;;;29.31;100.00
76358;BME280;65185;21.060;105.826;2023-09-19T13:06:56;100948.94;;;29.27;100.00
76358;BME280;65185;21.060;105.826;2023-09-19T13:09:27;100961.69;;;29.24;100.00
76358;BME280;65185;21.060;105.826;2023-09-19T13:12:38;100972.44;;;29.22;100.00
76358;BME280;65185;21.060;105.826;2023-09-19T13:15:11;100973.19;;;29.24;100.00
76358;BME280;65185;21.060;105.826;2023-09-19T13:17:50;100980.56;;;29.21;100.00
76358;BME280;65185;21.060;105.826;2023-09-19T13:20:27;100993.91;;;29.21;100.00
76358;BME280;65185;21.060;105.826;2023-09-19T13:22:54;100998.19;;;29.23;100.00
76358;BME280;65185;21.060;105.826;2023-09-19T13:25:26;100996.72;;;29.19;100.00
76358;BME280;65185;21.060;105.826;2023-09-19T13:27:58;101001.31;;;29.17;100.00
76358;BME280;65185;21.060;105.826;2023-09-19T13:30:27;100999.63;;;29.16;100.00
76358;BME280;65185;21.060;105.826;2023-09-19T13:33:06;101015.53;;;29.18;100.00
76358;BME280;65185;21.060;105.826;2023-09-19T13:35:33;101021.09;;;29.15;100.00